createdAt,value
2022-10-12T00:03:24.538Z,6
2022-10-12T00:08:28.913Z,5
2022-10-12T00:13:32.489Z,5
2022-10-12T00:18:37.054Z,5
2022-10-12T00:23:40.728Z,5
2022-10-12T00:28:45.189Z,5
2022-10-12T00:33:49.631Z,5
2022-10-12T00:38:53.181Z,5
2022-10-12T00:43:58.750Z,5
2022-10-12T00:49:02.269Z,4
2022-10-12T00:54:05.836Z,4
2022-10-12T00:59:10.314Z,5
2022-10-12T01:04:14.910Z,5
2022-10-12T01:09:18.450Z,5
2022-10-12T01:14:22.945Z,5
2022-10-12T01:19:27.538Z,5
2022-10-12T01:24:32.018Z,5
2022-10-12T01:29:35.574Z,6
2022-10-12T01:34:40.125Z,5
2022-10-12T01:39:44.662Z,5
2022-10-12T01:44:48.189Z,5
2022-10-12T01:49:52.754Z,5
2022-10-12T01:54:57.318Z,5
2022-10-12T02:00:00.829Z,5
2022-10-12T02:05:05.355Z,5
2022-10-12T02:10:09.902Z,5
2022-10-12T02:15:13.415Z,6
2022-10-12T02:20:18.009Z,5
2022-10-12T02:25:22.523Z,5
2022-10-12T02:30:27.044Z,5
2022-10-12T02:35:30.584Z,5
2022-10-12T02:40:35.119Z,5
2022-10-12T02:45:39.632Z,5
2022-10-12T02:50:43.235Z,5
2022-10-12T02:55:47.779Z,5
2022-10-12T03:00:52.298Z,5
2022-10-12T03:05:55.824Z,5
2022-10-12T03:11:00.334Z,5
2022-10-12T03:16:04.889Z,5
2022-10-12T03:21:08.480Z,5
2022-10-12T03:26:12.954Z,5
2022-10-12T03:31:17.481Z,6
2022-10-12T03:36:22.091Z,6
2022-10-12T03:41:25.578Z,6
2022-10-12T03:46:30.138Z,6
2022-10-12T03:51:34.716Z,6
2022-10-12T03:56:38.217Z,6
2022-10-12T04:01:42.842Z,6
2022-10-12T04:06:47.306Z,6
2022-10-12T04:11:50.827Z,7
2022-10-12T04:16:55.391Z,7
2022-10-12T04:21:59.998Z,7
2022-10-12T04:27:03.468Z,7
2022-10-12T04:32:12.341Z,7
2022-10-12T04:37:11.545Z,7
2022-10-12T04:42:16.070Z,8
2022-10-12T04:47:20.609Z,8
2022-10-12T04:52:24.204Z,8
2022-10-12T04:57:28.712Z,8
2022-10-12T05:02:33.262Z,8
2022-10-12T05:07:37.130Z,8
2022-10-12T05:12:41.313Z,14
2022-10-12T05:17:45.845Z,16
2022-10-12T05:22:50.414Z,11
2022-10-12T05:27:53.960Z,6
2022-10-12T05:32:58.469Z,6
2022-10-12T05:38:03.043Z,6
2022-10-12T05:43:06.571Z,6
2022-10-12T05:48:11.101Z,6
2022-10-12T05:53:15.650Z,6
2022-10-12T05:58:19.211Z,6
2022-10-12T06:03:26.275Z,6
2022-10-12T06:08:28.276Z,5
2022-10-12T06:13:31.788Z,5
2022-10-12T06:18:36.345Z,5
2022-10-12T06:23:40.918Z,5
2022-10-12T06:28:45.473Z,4
2022-10-12T06:33:48.982Z,4
2022-10-12T06:38:53.538Z,4
2022-10-12T06:43:58.026Z,4
2022-10-12T06:49:01.582Z,4
2022-10-12T06:54:06.151Z,4
2022-10-12T06:59:10.668Z,4
2022-10-12T07:04:14.223Z,4
2022-10-12T07:09:18.769Z,4
2022-10-12T07:14:23.270Z,4
2022-10-12T07:19:26.809Z,4
2022-10-12T07:24:31.397Z,4
2022-10-12T07:29:35.891Z,4
2022-10-12T07:34:40.396Z,4
2022-10-12T07:39:44.006Z,4
2022-10-12T07:44:48.512Z,4
2022-10-12T07:49:53.050Z,4
2022-10-12T07:54:56.592Z,4
2022-10-12T08:00:01.095Z,4
2022-10-12T08:05:05.679Z,4
2022-10-12T08:10:09.250Z,4
2022-10-12T08:15:13.722Z,4
2022-10-12T08:20:18.275Z,4
2022-10-12T08:25:21.874Z,4
2022-10-12T08:30:31.381Z,4
2022-10-12T08:35:30.894Z,4
2022-10-12T08:40:35.553Z,4
2022-10-12T08:45:38.976Z,4
2022-10-12T08:50:42.510Z,4
2022-10-12T08:55:47.109Z,4
2022-10-12T09:00:51.593Z,4
2022-10-12T09:05:55.154Z,4
2022-10-12T09:10:59.704Z,4
2022-10-12T09:16:04.231Z,4
2022-10-12T09:21:08.824Z,4
2022-10-12T09:26:12.332Z,4
2022-10-12T09:31:16.834Z,4
2022-10-12T09:36:21.410Z,4
2022-10-12T09:41:24.911Z,4
2022-10-12T09:46:29.426Z,4
2022-10-12T09:51:34.019Z,4
2022-10-12T09:56:37.524Z,5
2022-10-12T10:01:42.069Z,4
2022-10-12T10:06:46.735Z,4
2022-10-12T10:11:50.180Z,4
2022-10-12T10:16:54.688Z,4
2022-10-12T10:21:59.216Z,4
2022-10-12T10:27:03.779Z,3
2022-10-12T10:32:07.333Z,4
2022-10-12T10:37:11.847Z,4
2022-10-12T10:42:16.367Z,4
2022-10-12T10:47:19.918Z,3
2022-10-12T10:52:24.460Z,3
2022-10-12T10:57:29.026Z,3
2022-10-12T11:02:32.556Z,3
2022-10-12T11:07:37.110Z,2
2022-10-12T11:12:41.669Z,3
2022-10-12T11:17:45.147Z,3
2022-10-12T11:22:49.698Z,3
2022-10-12T11:27:54.347Z,3
2022-10-12T11:32:58.774Z,3
2022-10-12T11:38:02.330Z,3
2022-10-12T11:43:06.880Z,2
2022-10-12T11:48:11.356Z,2
2022-10-12T11:53:14.949Z,3
2022-10-12T11:58:24.447Z,3
2022-10-12T12:03:24.020Z,3
2022-10-12T12:08:27.556Z,3
2022-10-12T12:13:32.167Z,3
2022-10-12T12:18:36.635Z,3
2022-10-12T12:23:40.198Z,2
2022-10-12T12:28:44.834Z,2
2022-10-12T12:33:49.285Z,2
2022-10-12T12:38:53.816Z,3
2022-10-12T12:43:57.404Z,3
2022-10-12T12:49:01.898Z,3
2022-10-12T12:54:06.455Z,3
2022-10-12T12:59:10.005Z,3
2022-10-12T13:04:13.547Z,3
2022-10-12T13:09:18.092Z,4
2022-10-12T13:14:22.645Z,4
2022-10-12T13:19:27.145Z,3
2022-10-12T13:24:30.697Z,3
2022-10-12T13:29:35.213Z,3
2022-10-12T13:34:39.786Z,3
2022-10-12T13:39:43.421Z,3
2022-10-12T13:44:47.960Z,3
2022-10-12T13:49:52.358Z,4
2022-10-12T13:54:56.000Z,4
2022-10-12T14:00:00.537Z,4
2022-10-12T14:05:04.983Z,4
2022-10-12T14:10:08.545Z,5
2022-10-12T14:15:13.099Z,5
2022-10-12T14:20:17.641Z,5
2022-10-12T14:25:22.177Z,5
2022-10-12T14:30:25.717Z,4
2022-10-12T14:35:30.272Z,4
2022-10-12T14:40:34.938Z,4
2022-10-12T14:45:38.311Z,4
2022-10-12T14:50:42.866Z,3
2022-10-12T14:55:49.619Z,4
2022-10-12T15:00:51.033Z,4
2022-10-12T15:05:55.490Z,5
2022-10-12T15:11:00.030Z,4
2022-10-12T15:16:03.562Z,4
2022-10-12T15:21:08.126Z,4
2022-10-12T15:26:12.652Z,5
2022-10-12T15:31:18.638Z,4
2022-10-12T15:36:20.710Z,4
2022-10-12T15:41:25.274Z,5
2022-10-12T15:46:29.793Z,4
2022-10-12T15:51:33.319Z,7
2022-10-12T15:56:37.923Z,7
2022-10-12T16:01:42.411Z,6
2022-10-12T16:06:45.935Z,9
2022-10-12T16:11:50.577Z,7
2022-10-12T16:16:54.989Z,6
2022-10-12T16:21:58.592Z,20
2022-10-12T16:27:03.097Z,8
2022-10-12T16:32:07.609Z,6
2022-10-12T16:37:12.156Z,7
2022-10-12T16:42:16.137Z,7
2022-10-12T16:47:20.244Z,10
2022-10-12T16:52:24.774Z,8
2022-10-12T16:57:28.340Z,7
2022-10-12T17:02:32.916Z,7
2022-10-12T17:07:37.395Z,7
2022-10-12T17:12:40.949Z,7
2022-10-12T17:17:45.481Z,7
2022-10-12T17:22:49.193Z,7
2022-10-12T17:27:53.577Z,7
2022-10-12T17:32:58.080Z,7
2022-10-12T17:38:01.663Z,8
2022-10-12T17:43:06.207Z,8
2022-10-12T17:48:10.707Z,8
2022-10-12T17:53:14.250Z,8
2022-10-12T17:58:18.835Z,11
2022-10-12T18:03:25.698Z,10
2022-10-12T18:08:26.869Z,9
2022-10-12T18:13:31.427Z,9
2022-10-12T18:18:35.956Z,8
2022-10-12T18:23:40.468Z,8
2022-10-12T18:28:44.146Z,9
2022-10-12T18:33:48.615Z,9
2022-10-12T18:38:53.086Z,9
2022-10-12T18:43:56.680Z,9
2022-10-12T18:49:01.200Z,10
2022-10-12T18:54:05.703Z,10
2022-10-12T18:59:09.415Z,10
2022-10-12T19:04:13.803Z,9
2022-10-12T19:09:18.378Z,9
2022-10-12T19:14:21.922Z,9
2022-10-12T19:19:26.400Z,9
2022-10-12T19:24:30.944Z,10
2022-10-12T19:29:35.536Z,9
2022-10-12T19:34:39.056Z,9
2022-10-12T19:39:43.613Z,9
2022-10-12T19:44:48.127Z,9
2022-10-12T19:49:51.667Z,10
2022-10-12T19:54:56.215Z,10
2022-10-12T20:00:00.761Z,10
2022-10-12T20:05:04.301Z,10
2022-10-12T20:10:08.836Z,10
2022-10-12T20:15:13.445Z,10
2022-10-12T20:20:16.915Z,10
2022-10-12T20:25:21.422Z,11
2022-10-12T20:30:25.973Z,10
2022-10-12T20:35:30.497Z,11
2022-10-12T20:40:34.074Z,11
2022-10-12T20:45:38.611Z,12
2022-10-12T20:50:43.113Z,12
2022-10-12T20:55:46.664Z,12
2022-10-12T21:00:51.239Z,12
2022-10-12T21:05:55.738Z,11
2022-10-12T21:10:59.307Z,12
2022-10-12T21:16:03.877Z,13
2022-10-12T21:21:08.362Z,13
2022-10-12T21:26:11.905Z,14
2022-10-12T21:31:16.498Z,14
2022-10-12T21:36:19.974Z,14
2022-10-12T21:41:24.524Z,14
2022-10-12T21:46:29.083Z,15
2022-10-12T21:51:32.621Z,15
2022-10-12T21:56:37.158Z,16
2022-10-12T22:01:41.706Z,17
2022-10-12T22:06:45.243Z,16
2022-10-12T22:11:49.740Z,17
2022-10-12T22:16:54.305Z,17
2022-10-12T22:21:58.809Z,17
2022-10-12T22:27:02.365Z,17
2022-10-12T22:32:06.909Z,18
2022-10-12T22:37:11.422Z,18
2022-10-12T22:42:14.984Z,17
2022-10-12T22:47:19.530Z,18
2022-10-12T22:52:24.073Z,19
2022-10-12T22:57:27.579Z,18
2022-10-12T23:02:32.184Z,19
2022-10-12T23:07:36.645Z,18
2022-10-12T23:12:40.240Z,19
2022-10-12T23:17:44.787Z,19
2022-10-12T23:22:49.310Z,19
2022-10-12T23:27:53.822Z,19
2022-10-12T23:32:57.408Z,19
2022-10-12T23:38:01.911Z,20
2022-10-12T23:43:06.435Z,21
2022-10-12T23:48:10.079Z,21
2022-10-12T23:53:14.655Z,22
2022-10-12T23:58:19.084Z,22
